sensor_id;sensor_type;location;lat;lon;timestamp;P1;durP1;ratioP1;P2;durP2;ratioP2
7613;SDS011;3848;42.016;23.098;2022-08-02T00:00:53;5.47;;;3.70;;
7613;SDS011;3848;42.016;23.098;2022-08-02T00:03:20;3.20;;;3.00;;
7613;SDS011;3848;42.016;23.098;2022-08-02T00:05:46;3.27;;;3.00;;
7613;SDS011;3848;42.016;23.098;2022-08-02T00:08:13;4.70;;;3.47;;
7613;SDS011;3848;42.016;23.098;2022-08-02T00:10:42;3.80;;;3.50;;
7613;SDS011;3848;42.016;23.098;2022-08-02T00:13:08;3.73;;;3.10;;
7613;SDS011;3848;42.016;23.098;2022-08-02T00:15:35;7.47;;;3.10;;
7613;SDS011;3848;42.016;23.098;2022-08-02T00:18:02;4.27;;;3.67;;
7613;SDS011;3848;42.016;23.098;2022-08-02T00:20:29;3.50;;;3.10;;
7613;SDS011;3848;42.016;23.098;2022-08-02T00:22:56;3.47;;;2.83;;
7613;SDS011;3848;42.016;23.098;2022-08-02T00:25:23;4.70;;;3.13;;
7613;SDS011;3848;42.016;23.098;2022-08-02T00:27:51;4.70;;;3.50;;
7613;SDS011;3848;42.016;23.098;2022-08-02T00:30:18;3.40;;;3.10;;
7613;SDS011;3848;42.016;23.098;2022-08-02T00:32:45;3.50;;;3.20;;
7613;SDS011;3848;42.016;23.098;2022-08-02T00:35:11;3.67;;;3.37;;
7613;SDS011;3848;42.016;23.098;2022-08-02T00:37:38;4.77;;;3.30;;
7613;SDS011;3848;42.016;23.098;2022-08-02T00:40:06;3.80;;;3.50;;
7613;SDS011;3848;42.016;23.098;2022-08-02T00:42:34;3.80;;;3.50;;
7613;SDS011;3848;42.016;23.098;2022-08-02T00:45:02;3.60;;;3.30;;
7613;SDS011;3848;42.016;23.098;2022-08-02T00:47:30;3.60;;;3.30;;
7613;SDS011;3848;42.016;23.098;2022-08-02T00:49:57;5.80;;;3.57;;
7613;SDS011;3848;42.016;23.098;2022-08-02T00:52:23;4.83;;;3.20;;
7613;SDS011;3848;42.016;23.098;2022-08-02T00:54:51;4.13;;;3.03;;
7613;SDS011;3848;42.016;23.098;2022-08-02T00:57:17;4.67;;;3.07;;
7613;SDS011;3848;42.016;23.098;2022-08-02T00:59:44;4.07;;;3.70;;
7613;SDS011;3848;42.016;23.098;2022-08-02T01:02:13;8.10;;;3.57;;
7613;SDS011;3848;42.016;23.098;2022-08-02T01:04:39;3.90;;;3.60;;
7613;SDS011;3848;42.016;23.098;2022-08-02T01:07:06;4.77;;;3.63;;
7613;SDS011;3848;42.016;23.098;2022-08-02T01:09:33;3.23;;;2.93;;
7613;SDS011;3848;42.016;23.098;2022-08-02T01:12:00;3.60;;;3.23;;
7613;SDS011;3848;42.016;23.098;2022-08-02T01:14:27;4.73;;;3.27;;
7613;SDS011;3848;42.016;23.098;2022-08-02T01:16:56;4.67;;;3.03;;
7613;SDS011;3848;42.016;23.098;2022-08-02T01:19:45;4.50;;;3.47;;
7613;SDS011;3848;42.016;23.098;2022-08-02T01:22:24;3.57;;;3.17;;
7613;SDS011;3848;42.016;23.098;2022-08-02T01:25:12;4.50;;;3.20;;
7613;SDS011;3848;42.016;23.098;2022-08-02T01:28:00;4.83;;;3.30;;
7613;SDS011;3848;42.016;23.098;2022-08-02T01:30:34;6.93;;;3.23;;
7613;SDS011;3848;42.016;23.098;2022-08-02T01:33:04;3.30;;;3.00;;
7613;SDS011;3848;42.016;23.098;2022-08-02T01:35:35;8.37;;;3.50;;
7613;SDS011;3848;42.016;23.098;2022-08-02T01:38:06;10.03;;;3.97;;
7613;SDS011;3848;42.016;23.098;2022-08-02T01:40:40;3.90;;;3.50;;
7613;SDS011;3848;42.016;23.098;2022-08-02T01:43:11;5.90;;;3.57;;
7613;SDS011;3848;42.016;23.098;2022-08-02T01:45:39;3.80;;;3.40;;
7613;SDS011;3848;42.016;23.098;2022-08-02T01:48:09;4.77;;;3.30;;
7613;SDS011;3848;42.016;23.098;2022-08-02T01:50:37;4.00;;;3.40;;
7613;SDS011;3848;42.016;23.098;2022-08-02T01:53:07;10.40;;;3.20;;
7613;SDS011;3848;42.016;23.098;2022-08-02T01:55:38;4.50;;;3.43;;
7613;SDS011;3848;42.016;23.098;2022-08-02T01:58:09;3.87;;;3.40;;
7613;SDS011;3848;42.016;23.098;2022-08-02T02:00:40;3.77;;;3.37;;
7613;SDS011;3848;42.016;23.098;2022-08-02T02:03:08;5.40;;;2.97;;
7613;SDS011;3848;42.016;23.098;2022-08-02T02:05:38;3.30;;;3.00;;
7613;SDS011;3848;42.016;23.098;2022-08-02T02:08:08;2.60;;;2.40;;
7613;SDS011;3848;42.016;23.098;2022-08-02T02:10:37;5.83;;;2.50;;
7613;SDS011;3848;42.016;23.098;2022-08-02T02:13:06;3.23;;;2.93;;
7613;SDS011;3848;42.016;23.098;2022-08-02T02:15:37;2.83;;;2.63;;
7613;SDS011;3848;42.016;23.098;2022-08-02T02:18:07;4.53;;;2.70;;
7613;SDS011;3848;42.016;23.098;2022-08-02T02:20:36;3.10;;;2.80;;
7613;SDS011;3848;42.016;23.098;2022-08-02T02:23:03;3.20;;;2.93;;
7613;SDS011;3848;42.016;23.098;2022-08-02T02:25:30;5.50;;;2.67;;
7613;SDS011;3848;42.016;23.098;2022-08-02T02:27:59;4.73;;;2.83;;
7613;SDS011;3848;42.016;23.098;2022-08-02T02:30:28;5.40;;;3.17;;
7613;SDS011;3848;42.016;23.098;2022-08-02T02:32:59;3.80;;;2.80;;
7613;SDS011;3848;42.016;23.098;2022-08-02T02:35:28;6.93;;;3.10;;
7613;SDS011;3848;42.016;23.098;2022-08-02T02:38:01;4.17;;;2.70;;
7613;SDS011;3848;42.016;23.098;2022-08-02T02:40:31;4.27;;;3.13;;
7613;SDS011;3848;42.016;23.098;2022-08-02T02:43:00;3.53;;;3.03;;
7613;SDS011;3848;42.016;23.098;2022-08-02T02:45:29;3.80;;;3.13;;
7613;SDS011;3848;42.016;23.098;2022-08-02T02:48:00;5.93;;;3.73;;
7613;SDS011;3848;42.016;23.098;2022-08-02T02:50:27;3.70;;;3.40;;
7613;SDS011;3848;42.016;23.098;2022-08-02T02:52:55;7.90;;;3.90;;
7613;SDS011;3848;42.016;23.098;2022-08-02T02:55:23;5.23;;;4.00;;
7613;SDS011;3848;42.016;23.098;2022-08-02T02:57:52;4.60;;;4.03;;
7613;SDS011;3848;42.016;23.098;2022-08-02T03:00:20;4.00;;;3.70;;
7613;SDS011;3848;42.016;23.098;2022-08-02T03:03:03;4.50;;;3.90;;
7613;SDS011;3848;42.016;23.098;2022-08-02T03:05:31;8.33;;;3.80;;
7613;SDS011;3848;42.016;23.098;2022-08-02T03:07:58;4.73;;;4.10;;
7613;SDS011;3848;42.016;23.098;2022-08-02T03:10:25;4.17;;;3.77;;
7613;SDS011;3848;42.016;23.098;2022-08-02T03:12:53;4.63;;;4.20;;
7613;SDS011;3848;42.016;23.098;2022-08-02T03:15:21;5.63;;;4.30;;
7613;SDS011;3848;42.016;23.098;2022-08-02T03:17:52;5.57;;;4.20;;
7613;SDS011;3848;42.016;23.098;2022-08-02T03:20:20;6.17;;;4.13;;
7613;SDS011;3848;42.016;23.098;2022-08-02T03:22:47;4.37;;;3.87;;
7613;SDS011;3848;42.016;23.098;2022-08-02T03:25:16;4.53;;;3.90;;
7613;SDS011;3848;42.016;23.098;2022-08-02T03:27:44;10.97;;;4.57;;
7613;SDS011;3848;42.016;23.098;2022-08-02T03:30:12;5.77;;;4.53;;
7613;SDS011;3848;42.016;23.098;2022-08-02T03:32:40;4.83;;;4.37;;
7613;SDS011;3848;42.016;23.098;2022-08-02T03:35:09;8.27;;;4.30;;
7613;SDS011;3848;42.016;23.098;2022-08-02T03:37:39;5.77;;;4.27;;
7613;SDS011;3848;42.016;23.098;2022-08-02T03:40:07;6.70;;;3.93;;
7613;SDS011;3848;42.016;23.098;2022-08-02T03:42:36;4.20;;;3.83;;
7613;SDS011;3848;42.016;23.098;2022-08-02T03:45:04;7.30;;;4.37;;
7613;SDS011;3848;42.016;23.098;2022-08-02T03:47:34;14.50;;;5.00;;
7613;SDS011;3848;42.016;23.098;2022-08-02T03:50:02;8.50;;;4.90;;
7613;SDS011;3848;42.016;23.098;2022-08-02T03:52:30;7.00;;;4.23;;
7613;SDS011;3848;42.016;23.098;2022-08-02T03:55:00;4.63;;;4.23;;
7613;SDS011;3848;42.016;23.098;2022-08-02T03:57:27;5.03;;;4.30;;
7613;SDS011;3848;42.016;23.098;2022-08-02T03:59:54;7.30;;;4.60;;
7613;SDS011;3848;42.016;23.098;2022-08-02T04:02:21;4.57;;;4.13;;
7613;SDS011;3848;42.016;23.098;2022-08-02T04:04:47;5.07;;;4.63;;
7613;SDS011;3848;42.016;23.098;2022-08-02T04:07:14;6.50;;;4.30;;
7613;SDS011;3848;42.016;23.098;2022-08-02T04:09:41;8.80;;;5.33;;
7613;SDS011;3848;42.016;23.098;2022-08-02T04:12:09;5.53;;;4.63;;
7613;SDS011;3848;42.016;23.098;2022-08-02T04:14:36;8.50;;;4.27;;
7613;SDS011;3848;42.016;23.098;2022-08-02T04:17:04;7.07;;;4.60;;
7613;SDS011;3848;42.016;23.098;2022-08-02T04:19:35;7.50;;;4.80;;
7613;SDS011;3848;42.016;23.098;2022-08-02T04:22:05;10.07;;;5.27;;
7613;SDS011;3848;42.016;23.098;2022-08-02T04:24:37;7.17;;;4.77;;
7613;SDS011;3848;42.016;23.098;2022-08-02T04:27:10;9.63;;;4.63;;
7613;SDS011;3848;42.016;23.098;2022-08-02T04:29:38;6.37;;;4.60;;
7613;SDS011;3848;42.016;23.098;2022-08-02T04:32:06;9.43;;;5.30;;
7613;SDS011;3848;42.016;23.098;2022-08-02T04:34:33;9.90;;;4.63;;
7613;SDS011;3848;42.016;23.098;2022-08-02T04:37:00;7.03;;;4.67;;
7613;SDS011;3848;42.016;23.098;2022-08-02T04:39:27;13.63;;;5.00;;
7613;SDS011;3848;42.016;23.098;2022-08-02T04:41:54;7.90;;;4.90;;
7613;SDS011;3848;42.016;23.098;2022-08-02T04:44:22;7.13;;;5.10;;
7613;SDS011;3848;42.016;23.098;2022-08-02T04:46:50;9.87;;;5.03;;
7613;SDS011;3848;42.016;23.098;2022-08-02T04:49:18;9.37;;;5.53;;
7613;SDS011;3848;42.016;23.098;2022-08-02T04:51:45;5.03;;;4.53;;
7613;SDS011;3848;42.016;23.098;2022-08-02T04:54:12;8.60;;;4.73;;
7613;SDS011;3848;42.016;23.098;2022-08-02T04:56:39;7.63;;;5.37;;
7613;SDS011;3848;42.016;23.098;2022-08-02T04:59:06;13.67;;;4.80;;
7613;SDS011;3848;42.016;23.098;2022-08-02T05:01:35;8.10;;;5.20;;
7613;SDS011;3848;42.016;23.098;2022-08-02T05:04:03;8.10;;;4.53;;
7613;SDS011;3848;42.016;23.098;2022-08-02T05:06:30;11.23;;;5.13;;
7613;SDS011;3848;42.016;23.098;2022-08-02T05:08:57;10.00;;;6.33;;
7613;SDS011;3848;42.016;23.098;2022-08-02T05:11:24;8.53;;;5.57;;
7613;SDS011;3848;42.016;23.098;2022-08-02T05:13:51;9.87;;;4.90;;
7613;SDS011;3848;42.016;23.098;2022-08-02T05:16:18;8.37;;;4.90;;
7613;SDS011;3848;42.016;23.098;2022-08-02T05:18:46;8.43;;;4.90;;
7613;SDS011;3848;42.016;23.098;2022-08-02T05:21:15;8.40;;;4.73;;
7613;SDS011;3848;42.016;23.098;2022-08-02T05:23:42;10.60;;;5.80;;
7613;SDS011;3848;42.016;23.098;2022-08-02T05:26:08;9.63;;;4.70;;
7613;SDS011;3848;42.016;23.098;2022-08-02T05:28:35;10.87;;;4.63;;
7613;SDS011;3848;42.016;23.098;2022-08-02T05:31:02;15.70;;;5.10;;
7613;SDS011;3848;42.016;23.098;2022-08-02T05:33:29;7.10;;;4.57;;
7613;SDS011;3848;42.016;23.098;2022-08-02T05:35:57;7.80;;;4.73;;
7613;SDS011;3848;42.016;23.098;2022-08-02T05:38:24;9.03;;;5.20;;
7613;SDS011;3848;42.016;23.098;2022-08-02T05:40:52;8.70;;;4.73;;
7613;SDS011;3848;42.016;23.098;2022-08-02T05:43:19;8.77;;;5.07;;
7613;SDS011;3848;42.016;23.098;2022-08-02T05:45:47;8.77;;;5.33;;
7613;SDS011;3848;42.016;23.098;2022-08-02T05:48:15;8.83;;;5.00;;
7613;SDS011;3848;42.016;23.098;2022-08-02T05:50:44;6.50;;;4.87;;
7613;SDS011;3848;42.016;23.098;2022-08-02T05:53:17;13.20;;;5.20;;
7613;SDS011;3848;42.016;23.098;2022-08-02T05:55:50;15.30;;;5.60;;
7613;SDS011;3848;42.016;23.098;2022-08-02T05:58:29;9.60;;;4.93;;
7613;SDS011;3848;42.016;23.098;2022-08-02T06:01:02;5.63;;;4.97;;
7613;SDS011;3848;42.016;23.098;2022-08-02T06:03:30;10.77;;;5.17;;
7613;SDS011;3848;42.016;23.098;2022-08-02T06:06:03;17.37;;;5.50;;
7613;SDS011;3848;42.016;23.098;2022-08-02T06:08:36;7.10;;;4.67;;
7613;SDS011;3848;42.016;23.098;2022-08-02T06:11:05;7.27;;;4.73;;
7613;SDS011;3848;42.016;23.098;2022-08-02T06:13:36;10.07;;;4.37;;
7613;SDS011;3848;42.016;23.098;2022-08-02T06:16:05;7.07;;;4.23;;
7613;SDS011;3848;42.016;23.098;2022-08-02T06:18:32;10.00;;;4.63;;
7613;SDS011;3848;42.016;23.098;2022-08-02T06:21:02;11.17;;;4.47;;
7613;SDS011;3848;42.016;23.098;2022-08-02T06:23:30;11.30;;;4.57;;
7613;SDS011;3848;42.016;23.098;2022-08-02T06:25:59;11.37;;;4.83;;
7613;SDS011;3848;42.016;23.098;2022-08-02T06:28:28;13.63;;;6.83;;
7613;SDS011;3848;42.016;23.098;2022-08-02T06:30:56;14.23;;;6.00;;
7613;SDS011;3848;42.016;23.098;2022-08-02T06:33:24;11.83;;;5.10;;
7613;SDS011;3848;42.016;23.098;2022-08-02T06:35:53;14.83;;;6.27;;
7613;SDS011;3848;42.016;23.098;2022-08-02T06:38:36;9.57;;;5.37;;
7613;SDS011;3848;42.016;23.098;2022-08-02T06:41:08;9.80;;;5.50;;
7613;SDS011;3848;42.016;23.098;2022-08-02T06:43:41;22.30;;;6.07;;
7613;SDS011;3848;42.016;23.098;2022-08-02T06:46:12;12.40;;;5.27;;
7613;SDS011;3848;42.016;23.098;2022-08-02T06:48:39;11.27;;;5.00;;
7613;SDS011;3848;42.016;23.098;2022-08-02T06:51:06;11.20;;;5.10;;
7613;SDS011;3848;42.016;23.098;2022-08-02T06:53:33;14.53;;;4.73;;
7613;SDS011;3848;42.016;23.098;2022-08-02T06:56:00;12.77;;;4.87;;
7613;SDS011;3848;42.016;23.098;2022-08-02T06:58:28;10.73;;;5.47;;
7613;SDS011;3848;42.016;23.098;2022-08-02T07:00:55;13.73;;;4.83;;
7613;SDS011;3848;42.016;23.098;2022-08-02T07:03:22;15.03;;;6.03;;
7613;SDS011;3848;42.016;23.098;2022-08-02T07:05:49;18.27;;;6.67;;
7613;SDS011;3848;42.016;23.098;2022-08-02T07:08:17;12.53;;;4.50;;
7613;SDS011;3848;42.016;23.098;2022-08-02T07:10:44;12.87;;;4.43;;
7613;SDS011;3848;42.016;23.098;2022-08-02T07:13:11;4.60;;;3.40;;
7613;SDS011;3848;42.016;23.098;2022-08-02T07:15:40;8.77;;;4.93;;
7613;SDS011;3848;42.016;23.098;2022-08-02T07:18:07;8.23;;;4.37;;
7613;SDS011;3848;42.016;23.098;2022-08-02T07:20:39;8.47;;;4.20;;
7613;SDS011;3848;42.016;23.098;2022-08-02T07:23:06;8.53;;;3.70;;
7613;SDS011;3848;42.016;23.098;2022-08-02T07:25:33;10.40;;;3.33;;
7613;SDS011;3848;42.016;23.098;2022-08-02T07:28:00;6.57;;;3.40;;
7613;SDS011;3848;42.016;23.098;2022-08-02T07:30:27;13.27;;;4.47;;
7613;SDS011;3848;42.016;23.098;2022-08-02T07:32:57;7.83;;;3.80;;
7613;SDS011;3848;42.016;23.098;2022-08-02T07:35:24;7.23;;;3.60;;
7613;SDS011;3848;42.016;23.098;2022-08-02T07:37:51;4.30;;;3.90;;
7613;SDS011;3848;42.016;23.098;2022-08-02T07:40:18;12.10;;;3.80;;
7613;SDS011;3848;42.016;23.098;2022-08-02T07:42:46;6.57;;;3.43;;
7613;SDS011;3848;42.016;23.098;2022-08-02T07:45:16;6.67;;;3.07;;
7613;SDS011;3848;42.016;23.098;2022-08-02T07:47:43;11.83;;;3.30;;
7613;SDS011;3848;42.016;23.098;2022-08-02T07:50:12;6.27;;;3.43;;
7613;SDS011;3848;42.016;23.098;2022-08-02T07:52:40;6.83;;;3.17;;
7613;SDS011;3848;42.016;23.098;2022-08-02T07:55:08;6.77;;;3.43;;
7613;SDS011;3848;42.016;23.098;2022-08-02T07:57:36;8.60;;;3.10;;
7613;SDS011;3848;42.016;23.098;2022-08-02T08:00:04;5.67;;;3.30;;
7613;SDS011;3848;42.016;23.098;2022-08-02T08:02:33;5.60;;;3.00;;
7613;SDS011;3848;42.016;23.098;2022-08-02T08:05:00;6.40;;;3.30;;
7613;SDS011;3848;42.016;23.098;2022-08-02T08:07:28;7.67;;;3.27;;
7613;SDS011;3848;42.016;23.098;2022-08-02T08:09:55;10.30;;;3.23;;
7613;SDS011;3848;42.016;23.098;2022-08-02T08:12:23;7.87;;;3.53;;
7613;SDS011;3848;42.016;23.098;2022-08-02T08:14:50;5.90;;;3.20;;
7613;SDS011;3848;42.016;23.098;2022-08-02T08:17:17;11.73;;;3.90;;
7613;SDS011;3848;42.016;23.098;2022-08-02T08:19:44;7.40;;;3.27;;
7613;SDS011;3848;42.016;23.098;2022-08-02T08:22:11;9.50;;;3.70;;
7613;SDS011;3848;42.016;23.098;2022-08-02T08:24:39;7.40;;;2.80;;
7613;SDS011;3848;42.016;23.098;2022-08-02T08:27:06;11.47;;;2.80;;
7613;SDS011;3848;42.016;23.098;2022-08-02T08:29:38;5.97;;;2.50;;
7613;SDS011;3848;42.016;23.098;2022-08-02T08:32:06;8.07;;;2.37;;
7613;SDS011;3848;42.016;23.098;2022-08-02T08:34:33;5.20;;;1.90;;
7613;SDS011;3848;42.016;23.098;2022-08-02T08:37:00;6.93;;;1.87;;
7613;SDS011;3848;42.016;23.098;2022-08-02T08:39:28;5.60;;;1.90;;
7613;SDS011;3848;42.016;23.098;2022-08-02T08:41:56;4.73;;;2.03;;
7613;SDS011;3848;42.016;23.098;2022-08-02T08:44:23;6.23;;;1.80;;
7613;SDS011;3848;42.016;23.098;2022-08-02T08:46:51;8.30;;;2.03;;
7613;SDS011;3848;42.016;23.098;2022-08-02T08:49:23;3.40;;;1.50;;
7613;SDS011;3848;42.016;23.098;2022-08-02T08:51:53;2.83;;;2.10;;
7613;SDS011;3848;42.016;23.098;2022-08-02T08:54:22;5.03;;;1.80;;
7613;SDS011;3848;42.016;23.098;2022-08-02T08:56:51;6.40;;;1.50;;
7613;SDS011;3848;42.016;23.098;2022-08-02T08:59:21;3.97;;;2.17;;
7613;SDS011;3848;42.016;23.098;2022-08-02T09:01:48;5.03;;;1.40;;
7613;SDS011;3848;42.016;23.098;2022-08-02T09:04:16;2.70;;;1.50;;
7613;SDS011;3848;42.016;23.098;2022-08-02T09:06:43;1.83;;;1.67;;
7613;SDS011;3848;42.016;23.098;2022-08-02T09:09:10;2.13;;;1.20;;
7613;SDS011;3848;42.016;23.098;2022-08-02T09:11:37;6.63;;;1.40;;
7613;SDS011;3848;42.016;23.098;2022-08-02T09:14:04;2.33;;;1.40;;
7613;SDS011;3848;42.016;23.098;2022-08-02T09:16:34;2.03;;;1.40;;
7613;SDS011;3848;42.016;23.098;2022-08-02T09:19:15;2.40;;;1.10;;
7613;SDS011;3848;42.016;23.098;2022-08-02T09:21:43;1.77;;;1.33;;
7613;SDS011;3848;42.016;23.098;2022-08-02T09:24:17;2.90;;;1.10;;
7613;SDS011;3848;42.016;23.098;2022-08-02T09:26:45;3.80;;;2.43;;
7613;SDS011;3848;42.016;23.098;2022-08-02T09:29:12;2.13;;;1.23;;
7613;SDS011;3848;42.016;23.098;2022-08-02T09:31:41;3.80;;;1.93;;
7613;SDS011;3848;42.016;23.098;2022-08-02T09:34:08;2.80;;;1.37;;
7613;SDS011;3848;42.016;23.098;2022-08-02T09:36:36;3.60;;;1.20;;
7613;SDS011;3848;42.016;23.098;2022-08-02T09:39:06;4.43;;;1.47;;
7613;SDS011;3848;42.016;23.098;2022-08-02T09:41:35;2.40;;;1.30;;
7613;SDS011;3848;42.016;23.098;2022-08-02T09:44:05;3.00;;;1.03;;
7613;SDS011;3848;42.016;23.098;2022-08-02T09:46:34;4.33;;;1.50;;
7613;SDS011;3848;42.016;23.098;2022-08-02T09:49:04;2.70;;;1.20;;
7613;SDS011;3848;42.016;23.098;2022-08-02T09:51:34;3.93;;;1.80;;
7613;SDS011;3848;42.016;23.098;2022-08-02T09:54:03;2.97;;;1.00;;
7613;SDS011;3848;42.016;23.098;2022-08-02T09:56:41;2.37;;;1.20;;
7613;SDS011;3848;42.016;23.098;2022-08-02T09:59:09;3.13;;;1.50;;
7613;SDS011;3848;42.016;23.098;2022-08-02T10:01:37;1.50;;;1.30;;
7613;SDS011;3848;42.016;23.098;2022-08-02T10:04:06;2.27;;;1.20;;
7613;SDS011;3848;42.016;23.098;2022-08-02T10:06:35;7.13;;;1.60;;
7613;SDS011;3848;42.016;23.098;2022-08-02T10:09:03;2.57;;;1.30;;
7613;SDS011;3848;42.016;23.098;2022-08-02T10:11:31;1.47;;;1.20;;
7613;SDS011;3848;42.016;23.098;2022-08-02T10:13:59;2.67;;;1.00;;
7613;SDS011;3848;42.016;23.098;2022-08-02T10:16:29;2.60;;;1.83;;
7613;SDS011;3848;42.016;23.098;2022-08-02T10:18:56;7.77;;;1.67;;
7613;SDS011;3848;42.016;23.098;2022-08-02T10:21:27;1.43;;;1.20;;
7613;SDS011;3848;42.016;23.098;2022-08-02T10:23:59;3.17;;;1.80;;
7613;SDS011;3848;42.016;23.098;2022-08-02T10:26:31;6.53;;;1.20;;
7613;SDS011;3848;42.016;23.098;2022-08-02T10:28:58;3.17;;;1.50;;
7613;SDS011;3848;42.016;23.098;2022-08-02T10:31:26;4.80;;;1.70;;
7613;SDS011;3848;42.016;23.098;2022-08-02T10:33:57;10.00;;;3.57;;
7613;SDS011;3848;42.016;23.098;2022-08-02T10:36:29;2.77;;;1.50;;
7613;SDS011;3848;42.016;23.098;2022-08-02T10:39:00;2.10;;;1.30;;
7613;SDS011;3848;42.016;23.098;2022-08-02T10:41:40;3.20;;;1.23;;
7613;SDS011;3848;42.016;23.098;2022-08-02T10:44:08;1.73;;;1.10;;
7613;SDS011;3848;42.016;23.098;2022-08-02T10:46:44;2.10;;;1.20;;
7613;SDS011;3848;42.016;23.098;2022-08-02T10:49:12;4.83;;;1.37;;
7613;SDS011;3848;42.016;23.098;2022-08-02T10:51:55;2.80;;;1.47;;
7613;SDS011;3848;42.016;23.098;2022-08-02T10:54:24;2.27;;;1.50;;
7613;SDS011;3848;42.016;23.098;2022-08-02T10:56:52;5.83;;;1.97;;
7613;SDS011;3848;42.016;23.098;2022-08-02T10:59:23;2.40;;;1.60;;
7613;SDS011;3848;42.016;23.098;2022-08-02T11:01:52;4.77;;;1.47;;
7613;SDS011;3848;42.016;23.098;2022-08-02T11:04:26;5.10;;;2.10;;
7613;SDS011;3848;42.016;23.098;2022-08-02T11:07:09;3.78;;;1.30;;
7613;SDS011;3848;42.016;23.098;2022-08-02T11:09:38;11.68;;;1.63;;
7613;SDS011;3848;42.016;23.098;2022-08-02T11:12:06;4.70;;;2.58;;
7613;SDS011;3848;42.016;23.098;2022-08-02T11:14:35;3.95;;;1.92;;
7613;SDS011;3848;42.016;23.098;2022-08-02T11:17:07;4.13;;;1.95;;
7613;SDS011;3848;42.016;23.098;2022-08-02T11:22:41;9.70;;;2.15;;
7613;SDS011;3848;42.016;23.098;2022-08-02T11:27:58;4.93;;;2.13;;
7613;SDS011;3848;42.016;23.098;2022-08-02T11:30:33;3.67;;;1.88;;
7613;SDS011;3848;42.016;23.098;2022-08-02T11:33:00;4.70;;;1.83;;
7613;SDS011;3848;42.016;23.098;2022-08-02T11:35:30;3.55;;;1.77;;
7613;SDS011;3848;42.016;23.098;2022-08-02T11:38:12;4.30;;;2.05;;
7613;SDS011;3848;42.016;23.098;2022-08-02T11:40:40;2.83;;;1.55;;
7613;SDS011;3848;42.016;23.098;2022-08-02T11:43:20;2.30;;;1.35;;
7613;SDS011;3848;42.016;23.098;2022-08-02T11:45:51;3.10;;;1.30;;
7613;SDS011;3848;42.016;23.098;2022-08-02T11:48:29;3.17;;;1.70;;
7613;SDS011;3848;42.016;23.098;2022-08-02T11:51:01;3.65;;;1.50;;
7613;SDS011;3848;42.016;23.098;2022-08-02T11:53:44;2.60;;;1.58;;
7613;SDS011;3848;42.016;23.098;2022-08-02T11:56:12;2.10;;;1.33;;
7613;SDS011;3848;42.016;23.098;2022-08-02T11:58:40;1.30;;;1.10;;
7613;SDS011;3848;42.016;23.098;2022-08-02T12:01:07;3.42;;;1.30;;
7613;SDS011;3848;42.016;23.098;2022-08-02T12:03:34;2.28;;;1.60;;
7613;SDS011;3848;42.016;23.098;2022-08-02T12:06:02;3.30;;;1.30;;
7613;SDS011;3848;42.016;23.098;2022-08-02T12:08:30;2.53;;;1.45;;
7613;SDS011;3848;42.016;23.098;2022-08-02T12:11:01;0.93;;;0.93;;
7613;SDS011;3848;42.016;23.098;2022-08-02T12:13:28;1.58;;;1.08;;
7613;SDS011;3848;42.016;23.098;2022-08-02T12:16:09;3.35;;;1.10;;
7613;SDS011;3848;42.016;23.098;2022-08-02T12:18:54;3.50;;;1.20;;
7613;SDS011;3848;42.016;23.098;2022-08-02T12:21:39;2.08;;;1.02;;
7613;SDS011;3848;42.016;23.098;2022-08-02T12:24:06;5.65;;;1.13;;
7613;SDS011;3848;42.016;23.098;2022-08-02T12:26:41;2.05;;;0.90;;
7613;SDS011;3848;42.016;23.098;2022-08-02T12:29:08;3.05;;;1.13;;
7613;SDS011;3848;42.016;23.098;2022-08-02T12:31:40;0.80;;;0.80;;
7613;SDS011;3848;42.016;23.098;2022-08-02T12:34:12;2.47;;;1.25;;
7613;SDS011;3848;42.016;23.098;2022-08-02T12:36:42;1.63;;;1.00;;
7613;SDS011;3848;42.016;23.098;2022-08-02T12:39:10;2.15;;;1.00;;
7613;SDS011;3848;42.016;23.098;2022-08-02T12:41:40;2.03;;;1.08;;
7613;SDS011;3848;42.016;23.098;2022-08-02T12:44:14;2.05;;;0.90;;
7613;SDS011;3848;42.016;23.098;2022-08-02T12:46:42;1.65;;;0.88;;
7613;SDS011;3848;42.016;23.098;2022-08-02T12:49:13;1.38;;;0.80;;
7613;SDS011;3848;42.016;23.098;2022-08-02T12:51:41;3.03;;;2.72;;
7613;SDS011;3848;42.016;23.098;2022-08-02T12:54:12;1.00;;;1.00;;
7613;SDS011;3848;42.016;23.098;2022-08-02T12:56:42;0.90;;;0.73;;
7613;SDS011;3848;42.016;23.098;2022-08-02T12:59:09;1.92;;;0.95;;
7613;SDS011;3848;42.016;23.098;2022-08-02T13:01:36;3.13;;;1.23;;
7613;SDS011;3848;42.016;23.098;2022-08-02T13:04:03;1.85;;;1.00;;
7613;SDS011;3848;42.016;23.098;2022-08-02T13:06:31;1.48;;;0.98;;
7613;SDS011;3848;42.016;23.098;2022-08-02T13:08:58;0.70;;;0.70;;
7613;SDS011;3848;42.016;23.098;2022-08-02T13:11:25;3.57;;;0.93;;
7613;SDS011;3848;42.016;23.098;2022-08-02T13:13:54;2.33;;;0.88;;
7613;SDS011;3848;42.016;23.098;2022-08-02T13:16:21;3.90;;;1.07;;
7613;SDS011;3848;42.016;23.098;2022-08-02T13:18:49;1.33;;;0.80;;
7613;SDS011;3848;42.016;23.098;2022-08-02T13:21:16;2.40;;;0.80;;
7613;SDS011;3848;42.016;23.098;2022-08-02T13:23:42;6.95;;;0.75;;
7613;SDS011;3848;42.016;23.098;2022-08-02T13:26:09;2.42;;;1.05;;
7613;SDS011;3848;42.016;23.098;2022-08-02T13:28:36;0.73;;;0.73;;
7613;SDS011;3848;42.016;23.098;2022-08-02T13:31:08;5.38;;;1.30;;
7613;SDS011;3848;42.016;23.098;2022-08-02T13:33:35;1.85;;;1.00;;
7613;SDS011;3848;42.016;23.098;2022-08-02T13:36:01;1.17;;;1.13;;
7613;SDS011;3848;42.016;23.098;2022-08-02T13:38:29;15.35;;;2.38;;
7613;SDS011;3848;42.016;23.098;2022-08-02T13:40:56;1.75;;;0.90;;
7613;SDS011;3848;42.016;23.098;2022-08-02T13:43:35;6.30;;;1.10;;
7613;SDS011;3848;42.016;23.098;2022-08-02T13:46:03;1.05;;;0.80;;
7613;SDS011;3848;42.016;23.098;2022-08-02T13:48:32;2.58;;;0.70;;
7613;SDS011;3848;42.016;23.098;2022-08-02T13:50:59;3.67;;;0.90;;
7613;SDS011;3848;42.016;23.098;2022-08-02T13:53:26;1.17;;;0.80;;
7613;SDS011;3848;42.016;23.098;2022-08-02T13:55:53;0.90;;;0.88;;
7613;SDS011;3848;42.016;23.098;2022-08-02T13:58:21;1.95;;;0.68;;
7613;SDS011;3848;42.016;23.098;2022-08-02T14:00:48;1.65;;;0.85;;
7613;SDS011;3848;42.016;23.098;2022-08-02T14:03:15;4.00;;;1.20;;
7613;SDS011;3848;42.016;23.098;2022-08-02T14:05:44;9.50;;;1.10;;
7613;SDS011;3848;42.016;23.098;2022-08-02T14:08:11;2.30;;;1.05;;
7613;SDS011;3848;42.016;23.098;2022-08-02T14:10:38;2.92;;;0.98;;
7613;SDS011;3848;42.016;23.098;2022-08-02T14:13:05;0.90;;;0.90;;
7613;SDS011;3848;42.016;23.098;2022-08-02T14:15:32;1.60;;;0.75;;
7613;SDS011;3848;42.016;23.098;2022-08-02T14:17:59;3.40;;;0.95;;
7613;SDS011;3848;42.016;23.098;2022-08-02T14:20:26;3.03;;;1.95;;
7613;SDS011;3848;42.016;23.098;2022-08-02T14:22:54;3.95;;;1.00;;
7613;SDS011;3848;42.016;23.098;2022-08-02T14:25:21;1.65;;;0.90;;
7613;SDS011;3848;42.016;23.098;2022-08-02T14:27:48;0.90;;;0.90;;
7613;SDS011;3848;42.016;23.098;2022-08-02T14:30:15;7.18;;;1.20;;
7613;SDS011;3848;42.016;23.098;2022-08-02T14:32:42;3.13;;;0.93;;
7613;SDS011;3848;42.016;23.098;2022-08-02T14:35:09;1.33;;;1.23;;
7613;SDS011;3848;42.016;23.098;2022-08-02T14:37:36;2.95;;;1.20;;
7613;SDS011;3848;42.016;23.098;2022-08-02T14:40:05;1.83;;;1.00;;
7613;SDS011;3848;42.016;23.098;2022-08-02T14:42:32;2.88;;;0.85;;
7613;SDS011;3848;42.016;23.098;2022-08-02T14:44:59;7.22;;;1.58;;
7613;SDS011;3848;42.016;23.098;2022-08-02T14:47:26;2.28;;;1.27;;
7613;SDS011;3848;42.016;23.098;2022-08-02T14:49:53;3.47;;;1.17;;
7613;SDS011;3848;42.016;23.098;2022-08-02T14:52:20;5.15;;;1.23;;
7613;SDS011;3848;42.016;23.098;2022-08-02T14:54:47;2.60;;;1.10;;
7613;SDS011;3848;42.016;23.098;2022-08-02T14:57:15;2.45;;;0.93;;
7613;SDS011;3848;42.016;23.098;2022-08-02T14:59:42;0.73;;;0.70;;
7613;SDS011;3848;42.016;23.098;2022-08-02T15:02:09;1.05;;;0.90;;
7613;SDS011;3848;42.016;23.098;2022-08-02T15:04:36;3.55;;;1.00;;
7613;SDS011;3848;42.016;23.098;2022-08-02T15:07:03;1.27;;;0.95;;
7613;SDS011;3848;42.016;23.098;2022-08-02T15:09:29;2.35;;;1.05;;
7613;SDS011;3848;42.016;23.098;2022-08-02T15:11:56;1.38;;;1.00;;
7613;SDS011;3848;42.016;23.098;2022-08-02T15:14:24;0.75;;;0.70;;
7613;SDS011;3848;42.016;23.098;2022-08-02T15:16:51;0.70;;;0.70;;